Time;durP1;ratioP1;P1;durP2;ratioP2;P2;SDS_P1;SDS_P2;PMS_P1;PMS_P2;Temp;Humidity;BMP_temperature;BMP_pressure;BME280_temperature;BME280_humidity;BME280_pressure;Samples;Min_cycle;Max_cycle;Signal;HPM_P1;HPM_P2
2022/09/12 00:00:42;;;;;;;19.88;11.88;;;;;;;12.97;100.00;101657.72;4951480;28;20031;-68
2022/09/12 00:03:08;;;;;;;20.52;11.70;;;;;;;12.97;100.00;101657.72;4951553;29;20151;-69
2022/09/12 00:05:33;;;;;;;18.50;11.15;;;;;;;12.97;100.00;101652.38;4951461;29;20121;-68
2022/09/12 00:07:59;;;;;;;19.65;12.13;;;;;;;12.94;100.00;101648.22;4951265;29;20027;-68
2022/09/12 00:10:25;;;;;;;19.88;11.85;;;;;;;12.85;100.00;101645.88;4951253;29;20038;-68
2022/09/12 00:12:51;;;;;;;20.27;11.68;;;;;;;12.87;100.00;101644.66;4951053;28;20058;-68
2022/09/12 00:15:16;;;;;;;20.27;10.82;;;;;;;12.87;100.00;101641.16;4951262;29;20110;-69
2022/09/12 00:17:42;;;;;;;20.58;12.10;;;;;;;12.85;100.00;101635.97;4951307;29;20093;-68
2022/09/12 00:20:08;;;;;;;19.70;10.50;;;;;;;12.83;100.00;101632.66;4951122;29;20510;-68
2022/09/12 00:22:34;;;;;;;20.58;11.90;;;;;;;12.79;100.00;101638.59;4951258;29;20035;-68
2022/09/12 00:25:00;;;;;;;19.67;11.10;;;;;;;12.76;100.00;101634.47;4951149;28;20027;-68
2022/09/12 00:27:26;;;;;;;22.20;11.48;;;;;;;12.73;100.00;101634.81;4951137;29;20501;-68
2022/09/12 00:29:52;;;;;;;19.80;12.10;;;;;;;12.70;100.00;101635.22;4951261;29;20065;-68
2022/09/12 00:32:17;;;;;;;19.83;10.80;;;;;;;12.72;100.00;101636.69;4951007;29;20035;-68
2022/09/12 00:34:42;;;;;;;17.95;10.60;;;;;;;12.74;100.00;101630.31;4933717;29;20039;-69
2022/09/12 00:37:08;;;;;;;20.83;12.77;;;;;;;12.71;100.00;101621.66;4951014;29;20024;-68
2022/09/12 00:39:33;;;;;;;19.05;10.40;;;;;;;12.63;100.00;101619.09;4950839;29;20042;-68
2022/09/12 00:41:58;;;;;;;20.48;10.25;;;;;;;12.54;100.00;101611.38;4950994;29;20032;-68
2022/09/12 00:44:24;;;;;;;20.27;11.20;;;;;;;12.50;100.00;101616.31;4950770;29;20129;-68
2022/09/12 00:46:57;;;;;;;19.75;10.57;;;;;;;12.50;100.00;101614.44;4950955;29;20042;-68
2022/09/12 00:49:33;;;;;;;20.75;11.75;;;;;;;12.51;100.00;101609.91;4950874;29;20402;-68
2022/09/12 00:52:06;;;;;;;19.20;11.48;;;;;;;12.52;100.00;101610.75;4950798;29;20122;-68
2022/09/12 00:54:37;;;;;;;20.88;12.25;;;;;;;12.48;100.00;101607.63;4951942;28;20055;-68
2022/09/12 00:57:05;;;;;;;23.57;12.87;;;;;;;12.53;100.00;101607.88;4954852;28;20043;-68
2022/09/12 00:59:40;;;;;;;21.00;13.25;;;;;;;12.59;100.00;101617.00;4954693;29;20042;-69
2022/09/12 01:02:06;;;;;;;19.42;11.57;;;;;;;12.57;100.00;101605.66;4954756;29;20077;-67
2022/09/12 01:04:31;;;;;;;21.92;12.95;;;;;;;12.53;100.00;101594.50;4954755;29;20023;-68
2022/09/12 01:06:57;;;;;;;20.67;11.88;;;;;;;12.48;100.00;101594.25;4954611;28;20394;-69
2022/09/12 01:09:24;;;;;;;21.55;12.20;;;;;;;12.46;100.00;101596.28;4954448;28;20035;-69
2022/09/12 01:11:51;;;;;;;22.40;12.82;;;;;;;12.45;100.00;101587.44;4954462;29;20059;-68
2022/09/12 01:14:19;;;;;;;23.83;12.60;;;;;;;12.40;100.00;101594.38;4954421;29;20494;-68
2022/09/12 01:16:46;;;;;;;22.45;13.13;;;;;;;12.41;100.00;101596.84;4954446;29;20066;-68
2022/09/12 01:19:32;;;;;;;22.77;12.98;;;;;;;12.42;100.00;101597.69;4954436;29;20031;-68
2022/09/12 01:22:00;;;;;;;20.45;12.63;;;;;;;12.41;100.00;101594.16;4954370;29;20031;-68
2022/09/12 01:25:07;;;;;;;32.05;11.75;;;;;;;12.42;100.00;101592.34;4954330;29;20110;-68
2022/09/12 01:27:41;;;;;;;21.85;13.50;;;;;;;12.40;100.00;101592.53;4953825;29;20040;-69
2022/09/12 01:30:34;;;;;;;22.00;12.93;;;;;;;12.43;100.00;101588.66;4954211;29;20035;-68
2022/09/12 01:33:08;;;;;;;19.83;11.25;;;;;;;12.41;100.00;101593.34;4954210;29;20129;-68
2022/09/12 01:35:54;;;;;;;21.95;14.05;;;;;;;12.40;100.00;101589.03;4954176;29;20050;-68
2022/09/12 01:38:35;;;;;;;21.63;13.85;;;;;;;12.41;100.00;101585.31;4953918;29;20044;-68
2022/09/12 01:41:10;;;;;;;19.35;11.57;;;;;;;12.39;100.00;101582.00;4954135;29;20422;-68
2022/09/12 01:43:47;;;;;;;21.40;13.20;;;;;;;12.33;100.00;101580.09;4954024;29;20027;-68
2022/09/12 01:46:20;;;;;;;23.13;14.05;;;;;;;12.26;100.00;101575.53;4954033;29;20106;-68
2022/09/12 01:49:28;;;;;;;22.45;13.82;;;;;;;12.19;100.00;101571.94;4953999;28;20038;-68
2022/09/12 01:52:25;;;;;;;21.08;13.23;;;;;;;12.10;100.00;101558.88;4927956;29;20115;-68
2022/09/12 01:54:58;;;;;;;25.20;14.77;;;;;;;12.13;100.00;101563.84;4953645;29;20027;-68
2022/09/12 01:58:13;;;;;;;24.35;12.82;;;;;;;12.16;100.00;101563.47;4953829;29;20030;-68
2022/09/12 02:01:05;;;;;;;23.30;13.57;;;;;;;12.18;100.00;101561.41;4946980;28;20074;-68
2022/09/12 02:03:38;;;;;;;24.35;14.55;;;;;;;12.09;100.00;101549.19;4943561;29;20034;-68
2022/09/12 02:06:11;;;;;;;20.73;13.63;;;;;;;12.02;100.00;101552.63;4953314;28;20109;-68
2022/09/12 02:08:42;;;;;;;23.15;12.18;;;;;;;11.98;100.00;101546.00;4953513;29;20046;-68
2022/09/12 02:11:10;;;;;;;21.15;12.48;;;;;;;11.95;100.00;101540.22;4953412;28;20039;-68
2022/09/12 02:13:42;;;;;;;22.08;13.18;;;;;;;12.00;100.00;101549.31;4953214;28;20052;-68
2022/09/12 02:16:12;;;;;;;23.23;14.38;;;;;;;12.01;100.00;101550.16;4953680;28;20034;-68
2022/09/12 02:18:45;;;;;;;25.83;13.45;;;;;;;12.04;100.00;101547.91;4953449;29;20046;-68
2022/09/12 02:21:11;;;;;;;22.02;13.80;;;;;;;11.93;100.00;101535.03;4953322;29;20019;-68
2022/09/12 02:23:44;;;;;;;21.58;12.73;;;;;;;11.86;100.00;101539.47;4953387;29;20055;-68
2022/09/12 02:26:17;;;;;;;22.05;12.13;;;;;;;11.81;100.00;101539.19;4953183;29;20054;-68
2022/09/12 02:28:43;;;;;;;21.60;12.90;;;;;;;11.84;100.00;101533.47;4953281;29;20382;-68
2022/09/12 02:31:23;;;;;;;24.48;14.60;;;;;;;11.90;100.00;101532.75;4940021;29;20031;-68
2022/09/12 02:34:12;;;;;;;23.90;12.05;;;;;;;11.94;100.00;101538.53;4934816;29;20119;-68
2022/09/12 02:36:45;;;;;;;24.77;15.40;;;;;;;11.92;100.00;101530.72;4934682;29;20993;-68
2022/09/12 02:39:10;;;;;;;24.10;13.85;;;;;;;11.89;100.00;101532.94;4934761;29;20103;-68
2022/09/12 02:41:36;;;;;;;23.83;13.95;;;;;;;11.84;100.00;101533.47;4934615;28;20039;-68
2022/09/12 02:44:02;;;;;;;21.20;13.00;;;;;;;11.84;100.00;101534.31;4934675;29;20031;-68
2022/09/12 02:46:37;;;;;;;22.92;13.77;;;;;;;11.85;100.00;101543.97;4934604;29;20555;-68
2022/09/12 02:49:02;;;;;;;23.10;14.85;;;;;;;11.91;100.00;101545.09;4934412;29;20075;-69
2022/09/12 02:51:28;;;;;;;25.65;14.85;;;;;;;11.91;100.00;101542.41;4934435;29;20035;-68
2022/09/12 02:53:54;;;;;;;23.92;12.43;;;;;;;11.91;100.00;101542.41;4934400;29;20036;-69
2022/09/12 02:56:27;;;;;;;20.77;11.73;;;;;;;11.87;100.00;101543.81;4934355;29;20036;-68
2022/09/12 02:58:57;;;;;;;21.20;13.50;;;;;;;11.72;100.00;101527.78;4952596;29;20046;-68
2022/09/12 03:01:53;;;;;;;21.67;13.27;;;;;;;11.75;100.00;101539.94;4952666;29;20027;-68
2022/09/12 03:04:56;;;;;;;21.52;12.20;;;;;;;11.72;100.00;101535.81;4952708;29;20162;-68
2022/09/12 03:07:45;;;;;;;25.15;11.82;;;;;;;11.72;100.00;101527.78;4952655;29;20019;-68
2022/09/12 03:10:10;;;;;;;21.77;11.93;;;;;;;11.76;100.00;101525.56;4952434;29;20035;-68
2022/09/12 03:12:49;;;;;;;21.20;12.45;;;;;;;11.74;100.00;101517.75;4952464;29;20557;-68
2022/09/12 03:15:25;;;;;;;22.10;13.07;;;;;;;11.66;100.00;101517.84;4952468;29;20032;-68
2022/09/12 03:17:56;;;;;;;22.52;12.35;;;;;;;11.66;100.00;101509.84;4951633;28;20038;-68
2022/09/12 03:20:41;;;;;;;20.83;12.82;;;;;;;11.66;100.00;101511.66;4952229;29;20458;-68
2022/09/12 03:23:14;;;;;;;25.70;13.00;;;;;;;11.62;100.00;101512.03;4952261;29;20027;-68
2022/09/12 03:25:45;;;;;;;21.85;11.98;;;;;;;11.67;100.00;101519.50;4952135;29;20027;-68
2022/09/12 03:28:14;;;;;;;24.27;13.45;;;;;;;11.72;100.00;101514.41;4952197;29;20031;-69
2022/09/12 03:30:41;;;;;;;23.67;13.98;;;;;;;11.76;100.00;101509.53;4951977;29;20019;-68
2022/09/12 03:33:11;;;;;;;21.40;13.48;;;;;;;11.72;100.00;101506.41;4951898;29;20118;-68
2022/09/12 03:35:36;;;;;;;23.40;13.98;;;;;;;11.74;100.00;101519.59;4952039;29;20047;-68
2022/09/12 03:38:03;;;;;;;23.70;14.43;;;;;;;11.73;100.00;101508.06;4934702;29;20039;-68
2022/09/12 03:40:28;;;;;;;23.42;13.52;;;;;;;11.75;100.00;101506.03;4951848;29;20081;-68
2022/09/12 03:42:53;;;;;;;22.02;12.57;;;;;;;11.68;100.00;101501.63;4951801;29;20487;-68
2022/09/12 03:45:19;;;;;;;24.17;14.70;;;;;;;11.65;100.00;101504.66;4951825;29;20114;-68
2022/09/12 03:47:44;;;;;;;20.52;11.82;;;;;;;11.62;100.00;101504.03;4951723;29;20118;-68
2022/09/12 03:50:10;;;;;;;29.20;13.02;;;;;;;11.66;100.00;101506.31;4951767;29;20039;-68
2022/09/12 03:52:35;;;;;;;24.95;14.38;;;;;;;11.71;100.00;101501.22;4951705;29;20035;-68
2022/09/12 03:55:00;;;;;;;27.88;17.08;;;;;;;11.77;100.00;101506.66;4951531;29;20467;-68
2022/09/12 03:57:26;;;;;;;25.33;14.70;;;;;;;11.81;100.00;101501.78;4951769;29;20126;-68
2022/09/12 03:59:51;;;;;;;24.08;13.60;;;;;;;11.76;100.00;101502.34;4951563;29;20070;-68
2022/09/12 04:02:16;;;;;;;23.35;14.18;;;;;;;11.74;100.00;101501.72;4951468;29;20045;-68
2022/09/12 04:04:43;;;;;;;22.45;13.15;;;;;;;11.73;100.00;101491.19;4951617;29;20023;-68
2022/09/12 04:07:09;;;;;;;26.13;14.40;;;;;;;11.77;100.00;101493.31;4951465;28;20065;-68
2022/09/12 04:09:35;;;;;;;22.90;13.13;;;;;;;11.81;100.00;101496.41;4951123;29;20031;-68
2022/09/12 04:12:00;;;;;;;25.50;14.27;;;;;;;11.81;100.00;101483.88;4933828;29;20542;-68
2022/09/12 04:14:25;;;;;;;26.10;13.60;;;;;;;11.82;100.00;101488.22;4951230;29;20039;-68
2022/09/12 04:16:51;;;;;;;23.17;14.30;;;;;;;11.83;100.00;101491.72;4951262;29;20050;-68
2022/09/12 04:19:17;;;;;;;21.70;11.25;;;;;;;11.82;100.00;101488.22;4951260;29;20082;-68
2022/09/12 04:21:42;;;;;;;23.58;14.48;;;;;;;11.84;100.00;101486.19;4951275;29;20561;-68
2022/09/12 04:24:07;;;;;;;24.83;14.10;;;;;;;11.82;100.00;101480.22;4951171;29;20085;-68
2022/09/12 04:26:33;;;;;;;24.88;14.27;;;;;;;11.83;100.00;101487.19;4951078;29;20126;-68
2022/09/12 04:28:59;;;;;;;27.15;16.10;;;;;;;11.83;100.00;101489.06;4951208;28;20483;-69
2022/09/12 04:31:25;;;;;;;24.95;14.13;;;;;;;11.81;100.00;101477.72;4950978;28;20058;-68
2022/09/12 04:33:55;;;;;;;29.80;15.77;;;;;;;11.82;100.00;101488.22;4950993;29;20070;-68
2022/09/12 04:36:21;;;;;;;24.98;15.80;;;;;;;11.83;100.00;101478.34;4951017;28;20059;-68
2022/09/12 04:38:47;;;;;;;26.58;15.77;;;;;;;11.88;100.00;101485.84;4950957;29;20069;-65
2022/09/12 04:41:27;;;;;;;31.05;17.65;;;;;;;11.91;100.00;101477.44;4951061;29;20078;-65
2022/09/12 04:44:02;;;;;;;31.20;17.70;;;;;;;11.96;100.00;101475.84;4932579;29;20924;-65
2022/09/12 04:46:30;;;;;;;28.92;17.92;;;;;;;12.00;100.00;101476.31;4932676;29;20433;-65
2022/09/12 04:48:55;;;;;;;28.90;18.20;;;;;;;12.03;100.00;101478.59;4932312;29;20031;-65
2022/09/12 04:51:26;;;;;;;33.97;20.60;;;;;;;12.08;100.00;101478.84;4932503;29;20082;-65
2022/09/12 04:53:54;;;;;;;30.33;18.90;;;;;;;12.12;100.00;101469.41;4951005;29;20104;-65
2022/09/12 04:56:20;;;;;;;30.95;19.80;;;;;;;12.15;100.00;101470.88;4950973;29;20082;-65
2022/09/12 04:58:46;;;;;;;31.65;19.67;;;;;;;12.18;100.00;101467.81;4950943;28;20066;-65
2022/09/12 05:01:17;;;;;;;31.50;18.42;;;;;;;12.21;100.00;101468.28;4950629;29;20042;-66
2022/09/12 05:03:44;;;;;;;28.00;17.87;;;;;;;12.23;100.00;101471.56;4950824;29;20038;-65
2022/09/12 05:06:15;;;;;;;31.63;20.08;;;;;;;12.21;100.00;101470.97;4950565;29;20718;-65
2022/09/12 05:08:41;;;;;;;32.65;18.33;;;;;;;12.21;100.00;101470.13;4950377;28;20058;-65
2022/09/12 05:11:10;;;;;;;32.20;19.60;;;;;;;12.21;100.00;101470.97;4950425;29;20138;-65
2022/09/12 05:13:36;;;;;;;34.67;19.23;;;;;;;12.25;100.00;101471.38;4950218;29;20122;-65
2022/09/12 05:16:03;;;;;;;32.15;20.83;;;;;;;12.26;100.00;101478.38;4950527;29;20540;-65
2022/09/12 05:18:33;;;;;;;33.78;19.42;;;;;;;12.30;100.00;101476.16;4950432;29;20034;-65
2022/09/12 05:21:01;;;;;;;30.35;20.23;;;;;;;12.32;100.00;101474.13;4950380;29;20042;-65
2022/09/12 05:23:27;;;;;;;37.13;20.88;;;;;;;12.35;100.00;101479.09;4950408;28;20030;-66
2022/09/12 05:25:55;;;;;;;29.67;18.23;;;;;;;12.35;100.00;101473.75;4950409;29;20035;-65
2022/09/12 05:28:21;;;;;;;30.70;16.73;;;;;;;12.35;100.00;101471.06;4950345;29;20035;-65
2022/09/12 05:30:47;;;;;;;31.35;17.08;;;;;;;12.40;100.00;101474.00;4950292;28;21008;-65
2022/09/12 05:33:16;;;;;;;31.85;18.77;;;;;;;12.43;100.00;101470.94;4950221;29;20050;-65
2022/09/12 05:35:41;;;;;;;29.50;17.40;;;;;;;12.45;100.00;101474.25;4950377;29;20043;-65
2022/09/12 05:38:07;;;;;;;33.70;21.10;;;;;;;12.48;100.00;101474.69;4950502;29;20695;-67
2022/09/12 05:40:33;;;;;;;33.72;18.75;;;;;;;12.48;100.00;101468.50;4951572;28;20113;-65
2022/09/12 05:42:59;;;;;;;34.78;20.13;;;;;;;12.49;100.00;101473.63;4954092;29;20042;-66
2022/09/12 05:45:25;;;;;;;32.88;18.05;;;;;;;12.50;100.00;101472.63;4953880;29;20090;-65
2022/09/12 05:47:51;;;;;;;35.15;19.95;;;;;;;12.53;100.00;101476.78;4954090;28;20035;-66
2022/09/12 05:50:17;;;;;;;31.35;18.05;;;;;;;12.54;100.00;101478.41;4953963;28;20131;-66
2022/09/12 05:52:42;;;;;;;30.13;18.85;;;;;;;12.57;100.00;101477.19;4953778;28;20031;-65
2022/09/12 05:55:08;;;;;;;36.50;19.88;;;;;;;12.53;100.00;101466.06;4953771;29;20035;-65
2022/09/12 05:57:33;;;;;;;31.92;19.88;;;;;;;12.63;100.00;101481.81;4953728;29;20093;-65
2022/09/12 05:59:59;;;;;;;30.10;18.70;;;;;;;12.65;100.00;101485.09;4953789;29;20486;-65
2022/09/12 06:02:24;;;;;;;30.17;18.83;;;;;;;12.68;100.00;101488.22;4953628;29;20039;-65
2022/09/12 06:04:49;;;;;;;31.30;22.20;;;;;;;12.70;100.00;101496.84;4953527;29;20046;-65
2022/09/12 06:07:15;;;;;;;30.33;19.85;;;;;;;12.72;100.00;101497.50;4953336;28;20081;-65
2022/09/12 06:09:40;;;;;;;29.52;19.58;;;;;;;12.76;100.00;101492.59;4953301;29;20078;-65
2022/09/12 06:12:07;;;;;;;34.92;21.42;;;;;;;12.79;100.00;101491.38;4953246;29;20058;-66
2022/09/12 06:14:33;;;;;;;35.13;18.92;;;;;;;12.81;100.00;101500.03;4953365;29;20493;-65
2022/09/12 06:16:58;;;;;;;34.88;21.75;;;;;;;12.85;100.00;101498.63;4953378;29;20122;-65
2022/09/12 06:19:26;;;;;;;33.17;20.90;;;;;;;12.88;100.00;101501.72;4953538;28;20119;-67
2022/09/12 06:21:52;;;;;;;32.33;20.25;;;;;;;12.91;100.00;101498.66;4953467;29;20059;-66
2022/09/12 06:24:19;;;;;;;34.42;19.75;;;;;;;12.92;100.00;101494.97;4953278;29;20031;-65
2022/09/12 06:26:45;;;;;;;33.55;21.02;;;;;;;12.96;100.00;101492.72;4953107;29;20031;-65
2022/09/12 06:29:10;;;;;;;32.53;20.08;;;;;;;12.96;100.00;101506.09;4953191;29;20475;-69
2022/09/12 06:31:37;;;;;;;34.95;20.80;;;;;;;12.95;100.00;101493.75;4952982;29;20034;-70
2022/09/12 06:34:09;;;;;;;36.75;20.98;;;;;;;12.92;100.00;101497.66;4952921;29;20035;-70
2022/09/12 06:36:41;;;;;;;32.47;20.30;;;;;;;12.93;100.00;101496.59;4952480;29;20027;-69
2022/09/12 06:39:10;;;;;;;30.33;19.50;;;;;;;12.93;100.00;101490.44;4934395;29;20044;-69
2022/09/12 06:41:36;;;;;;;33.53;21.55;;;;;;;12.83;100.00;101482.75;4934241;29;20082;-70
2022/09/12 06:44:02;;;;;;;34.28;20.92;;;;;;;12.85;100.00;101483.38;4933979;29;20032;-70
2022/09/12 06:46:27;;;;;;;30.15;18.63;;;;;;;12.90;100.00;101490.81;4934139;29;20472;-71
2022/09/12 06:48:55;;;;;;;38.50;21.95;;;;;;;12.87;100.00;101491.22;4934019;29;20050;-70
2022/09/12 06:51:20;;;;;;;35.55;21.63;;;;;;;12.90;100.00;101493.50;4951538;28;20497;-69
2022/09/12 06:53:47;;;;;;;32.00;19.23;;;;;;;12.91;100.00;101487.94;4951840;28;20035;-71
2022/09/12 06:56:15;;;;;;;31.92;18.95;;;;;;;12.95;100.00;101480.34;4952199;29;20085;-73
2022/09/12 06:58:42;;;;;;;32.10;21.35;;;;;;;12.99;100.00;101489.63;4952311;28;20031;-73
2022/09/12 07:01:13;;;;;;;31.15;19.65;;;;;;;13.05;100.00;101498.75;4952454;28;20106;-72
2022/09/12 07:03:39;;;;;;;32.67;20.03;;;;;;;13.03;100.00;101480.19;4952431;29;20055;-73
2022/09/12 07:06:10;;;;;;;31.30;20.00;;;;;;;13.16;100.00;101490.16;4952380;29;20373;-70
2022/09/12 07:08:36;;;;;;;37.95;23.15;;;;;;;13.26;100.00;101484.44;4952407;29;20041;-68
2022/09/12 07:11:12;;;;;;;32.60;20.85;;;;;;;13.36;100.00;101498.31;4952380;28;20083;-70
2022/09/12 07:13:39;;;;;;;31.67;20.38;;;;;;;13.41;100.00;101478.97;4952149;29;20053;-75
2022/09/12 07:16:05;;;;;;;35.38;22.58;;;;;;;13.52;100.00;101487.28;4952423;29;20086;-73
2022/09/12 07:18:33;;;;;;;35.50;22.15;;;;;;;13.65;100.00;101480.28;4952554;29;20126;-70
2022/09/12 07:21:00;;;;;;;31.08;19.58;;;;;;;13.72;100.00;101473.91;4952303;29;20114;-70
2022/09/12 07:23:27;;;;;;;35.97;23.88;;;;;;;13.85;100.00;101472.31;4952102;29;20537;-71
2022/09/12 07:25:56;;;;;;;31.88;20.58;;;;;;;13.94;100.00;101479.16;4952155;29;20027;-71
2022/09/12 07:28:26;;;;;;;30.58;21.00;;;;;;;14.03;100.00;101473.38;4935480;28;20032;-72
2022/09/12 07:30:52;;;;;;;31.20;19.48;;;;;;;14.12;100.00;101467.78;4951739;29;20047;-70
2022/09/12 07:33:20;;;;;;;30.67;19.88;;;;;;;14.15;100.00;101456.69;4951873;28;20031;-71
2022/09/12 07:35:45;;;;;;;34.05;21.35;;;;;;;14.33;100.00;101470.31;4951961;29;20546;-69
2022/09/12 07:38:10;;;;;;;33.53;22.13;;;;;;;14.40;100.00;101465.75;4946234;28;20122;-70
2022/09/12 07:40:36;;;;;;;32.95;22.55;;;;;;;14.51;100.00;101468.84;4933566;29;20493;-70
2022/09/12 07:43:01;;;;;;;31.45;21.10;;;;;;;14.66;100.00;101474.84;4933517;29;20034;-73
2022/09/12 07:45:27;;;;;;;32.45;20.60;;;;;;;14.75;100.00;101478.13;4933306;29;20066;-69
2022/09/12 07:47:53;;;;;;;30.73;20.10;;;;;;;14.86;100.00;101467.59;4933288;29;20202;-71
2022/09/12 07:50:18;;;;;;;31.52;21.23;;;;;;;14.95;100.00;101472.75;4933282;29;20036;-70
2022/09/12 07:52:43;;;;;;;33.53;21.98;;;;;;;15.08;100.00;101475.38;4933268;29;20043;-70
2022/09/12 07:55:09;;;;;;;34.28;20.85;;;;;;;15.17;100.00;101478.66;4951039;29;20488;-68
2022/09/12 07:57:34;;;;;;;30.15;20.35;;;;;;;15.27;100.00;101477.22;4951343;29;20900;-70
2022/09/12 08:00:00;;;;;;;31.52;21.98;;;;;;;15.32;100.00;101463.09;4951458;28;20039;-69
2022/09/12 08:02:25;;;;;;;36.60;20.20;;;;;;;15.47;100.00;101481.66;4951297;29;20039;-65
2022/09/12 08:04:51;;;;;;;33.83;21.60;;;;;;;15.64;100.00;101484.69;4951154;28;20028;-65
2022/09/12 08:07:18;;;;;;;30.13;20.55;;;;;;;15.80;100.00;101472.63;4951557;28;20391;-65
2022/09/12 08:09:43;;;;;;;31.40;20.73;;;;;;;15.93;100.00;101475.25;4951140;29;20058;-65
2022/09/12 08:12:09;;;;;;;30.92;19.88;;;;;;;16.07;100.00;101481.38;4950944;29;20113;-65
2022/09/12 08:14:34;;;;;;;27.98;19.08;;;;;;;16.21;100.00;101482.91;4951173;29;20043;-65
2022/09/12 08:16:59;;;;;;;31.38;20.45;;;;;;;16.47;100.00;101481.88;4951283;29;20058;-65
2022/09/12 08:19:25;;;;;;;31.67;22.17;;;;;;;17.19;100.00;101481.41;4944431;28;20031;-65
2022/09/12 08:21:50;;;;;;;31.20;21.23;;;;;;;17.68;98.13;101488.47;4932857;29;20028;-65
2022/09/12 08:24:16;;;;;;;29.13;19.90;;;;;;;17.76;96.46;101484.59;4932856;29;20044;-66
2022/09/12 08:26:42;;;;;;;26.70;18.42;;;;;;;17.71;95.53;101485.31;4951009;29;20118;-65
2022/09/12 08:29:07;;;;;;;27.60;17.73;;;;;;;17.71;93.86;101489.84;4951257;29;20118;-65
2022/09/12 08:31:35;;;;;;;25.25;16.85;;;;;;;17.72;94.74;101494.22;4951137;28;20588;-65
2022/09/12 08:34:05;;;;;;;26.98;17.85;;;;;;;17.69;94.94;101500.91;4950800;29;20589;-66
2022/09/12 08:36:31;;;;;;;28.42;17.92;;;;;;;17.70;95.08;101499.84;4950856;29;20042;-65
2022/09/12 08:38:59;;;;;;;25.02;17.80;;;;;;;17.67;94.41;101499.47;4950833;29;20031;-66
2022/09/12 08:41:36;;;;;;;25.60;16.65;;;;;;;17.63;94.36;101493.72;4933465;29;20442;-65
2022/09/12 08:44:20;;;;;;;25.88;17.13;;;;;;;17.67;95.29;101497.59;4950874;28;20118;-66
2022/09/12 08:47:20;;;;;;;26.63;17.38;;;;;;;17.70;95.39;101504.41;4945812;28;20088;-66
2022/09/12 08:49:57;;;;;;;26.02;16.75;;;;;;;17.76;96.37;101498.09;4932536;29;20058;-66
2022/09/12 08:52:38;;;;;;;28.20;18.55;;;;;;;17.83;95.60;101490.78;4932535;29;20028;-66
2022/09/12 08:55:11;;;;;;;26.20;18.33;;;;;;;17.90;94.32;101494.22;4932383;29;20049;-65
2022/09/12 08:57:36;;;;;;;27.77;16.77;;;;;;;18.00;93.46;101493.66;4950625;29;20549;-69
2022/09/12 09:00:04;;;;;;;24.75;16.50;;;;;;;18.10;94.04;101493.91;4950521;28;20051;-69
2022/09/12 09:02:48;;;;;;;29.33;17.45;;;;;;;18.22;93.77;101493.94;4950549;29;20035;-69
2022/09/12 09:05:19;;;;;;;25.83;17.10;;;;;;;18.36;93.82;101484.56;4950729;28;20832;-69
2022/09/12 09:08:13;;;;;;;27.17;18.38;;;;;;;18.51;94.27;101483.28;4950640;29;20086;-69
2022/09/12 09:10:51;;;;;;;23.38;15.35;;;;;;;18.58;90.99;101482.13;4950512;29;20360;-69
2022/09/12 09:16:30;;;;;;;21.33;12.95;;;;;;;18.80;90.37;101476.97;4953192;28;20058;-69
2022/09/12 09:19:04;;;;;;;23.17;13.85;;;;;;;18.92;89.15;101487.78;4954336;28;20042;-69
2022/09/12 09:21:40;;;;;;;21.05;13.32;;;;;;;19.00;88.56;101476.59;4954392;29;20118;-69
2022/09/12 09:24:11;;;;;;;22.67;13.85;;;;;;;19.15;87.75;101483.38;4954311;29;20015;-69
2022/09/12 09:27:00;;;;;;;20.23;11.82;;;;;;;19.27;87.73;101467.97;4954252;28;20058;-70
2022/09/12 09:29:48;;;;;;;20.58;12.20;;;;;;;19.30;84.20;101467.47;4954251;28;20034;-69
2022/09/12 09:32:21;;;;;;;21.23;12.57;;;;;;;19.45;85.97;101467.78;4953612;29;20379;-70
2022/09/12 09:34:47;;;;;;;19.45;11.18;;;;;;;19.57;83.43;101473.16;4934573;28;20054;-69
2022/09/12 09:37:25;;;;;;;19.70;11.70;;;;;;;19.67;86.26;101461.72;4939353;28;20094;-68
2022/09/12 09:40:06;;;;;;;18.35;10.95;;;;;;;19.80;84.43;101464.13;4939203;28;20114;-70
2022/09/12 09:42:49;;;;;;;20.02;10.80;;;;;;;19.90;83.37;101467.03;4939511;28;20032;-69
2022/09/12 09:45:20;;;;;;;16.98;9.00;;;;;;;20.04;84.84;101459.44;4939556;28;20039;-71
2022/09/12 09:47:56;;;;;;;17.67;9.57;;;;;;;20.13;82.37;101467.97;4939904;28;20395;-66
2022/09/12 09:50:21;;;;;;;16.30;9.93;;;;;;;20.17;82.59;101463.69;4939560;28;20023;-65
2022/09/12 09:52:50;;;;;;;14.65;8.30;;;;;;;20.23;80.68;101456.47;4939313;28;20046;-65
2022/09/12 09:55:22;;;;;;;15.20;8.32;;;;;;;20.30;79.83;101454.41;4938274;28;20039;-66
2022/09/12 09:57:50;;;;;;;13.45;7.47;;;;;;;20.34;77.34;101450.97;4939136;28;20040;-66
2022/09/12 10:00:21;;;;;;;13.85;7.90;;;;;;;20.38;77.84;101442.34;4939749;28;20025;-65
2022/09/12 10:03:08;;;;;;;10.25;6.10;;;;;;;20.48;79.69;101445.19;4939015;28;20043;-67
2022/09/12 10:05:47;;;;;;;13.77;7.05;;;;;;;20.58;78.04;101432.66;4938557;28;20019;-65
2022/09/12 10:08:31;;;;;;;11.07;6.25;;;;;;;20.68;78.04;101428.47;4938682;28;20032;-66
2022/09/12 10:10:58;;;;;;;12.68;6.50;;;;;;;20.77;74.93;101435.06;4938508;28;20035;-66
2022/09/12 10:13:32;;;;;;;13.70;6.43;;;;;;;20.88;75.19;101433.31;4937725;28;20051;-66
2022/09/12 10:16:04;;;;;;;10.98;6.35;;;;;;;20.96;74.54;101424.78;4938655;28;20058;-65
2022/09/12 10:18:41;;;;;;;11.90;6.10;;;;;;;21.08;77.38;101424.63;4938610;28;20464;-66
2022/09/12 10:21:19;;;;;;;11.93;6.07;;;;;;;21.13;73.91;101419.25;4939381;28;20027;-66
2022/09/12 10:23:46;;;;;;;9.15;5.00;;;;;;;21.19;73.68;101423.66;4938242;28;20074;-66
2022/09/12 10:26:14;;;;;;;9.30;5.25;;;;;;;21.21;70.94;101410.66;4938516;28;20030;-67
2022/09/12 10:28:52;;;;;;;7.10;5.13;;;;;;;21.32;73.21;101415.13;4938884;28;20498;-66
2022/09/12 10:31:42;;;;;;;8.65;5.47;;;;;;;21.43;74.26;101408.78;4938771;28;20063;-66
2022/09/12 10:34:21;;;;;;;9.27;4.20;;;;;;;21.51;72.54;101399.38;4938959;28;20059;-66
2022/09/12 10:36:47;;;;;;;13.02;5.80;;;;;;;21.62;71.72;101403.81;4938253;28;20086;-66
2022/09/12 10:39:18;;;;;;;9.32;5.25;;;;;;;21.68;71.81;101401.97;4938350;28;20035;-66
2022/09/12 10:41:43;;;;;;;9.00;6.33;;;;;;;21.73;69.12;101398.47;4938435;28;20042;-66
2022/09/12 10:44:51;;;;;;;9.82;5.45;;;;;;;21.73;71.20;101388.44;4937425;28;20031;-66
2022/09/12 10:47:21;;;;;;;9.38;5.03;;;;;;;21.75;71.02;101388.19;4929381;28;20048;-66
2022/09/12 10:49:49;;;;;;;11.48;6.53;;;;;;;21.76;70.01;101385.19;4937620;28;20237;-66
2022/09/12 10:52:22;;;;;;;15.23;7.25;;;;;;;21.78;69.74;101382.22;4939497;28;20015;-66
2022/09/12 10:54:48;;;;;;;12.18;5.53;;;;;;;21.87;70.55;101376.03;4938450;28;20027;-66
2022/09/12 10:57:40;;;;;;;12.23;6.40;;;;;;;21.97;70.88;101367.16;4937598;28;20122;-66
2022/09/12 11:00:16;;;;;;;;;;;;;;;22.06;71.86;101368.34;4938477;28;20027;-66
2022/09/12 11:03:05;;;;;;;7.28;4.43;;;;;;;22.15;65.96;101371.38;4937158;28;20423;-66
2022/09/12 11:05:41;;;;;;;7.25;3.38;;;;;;;22.18;66.30;101359.16;4937807;28;20474;-66
2022/09/12 11:08:28;;;;;;;5.85;3.83;;;;;;;22.24;65.85;101364.41;4937115;28;20050;-66
2022/09/12 11:11:28;;;;;;;5.95;3.35;;;;;;;22.31;65.92;101364.16;4938265;28;20036;-66
2022/09/12 11:14:10;;;;;;;6.32;4.03;;;;;;;22.31;64.09;101358.72;4932957;28;20039;-66
2022/09/12 11:16:36;;;;;;;;;;;;;;;22.38;68.06;101351.16;4937646;28;20461;-66
2022/09/12 11:19:19;;;;;;;9.25;4.60;;;;;;;22.42;65.76;101348.72;4936785;28;19918;-65
2022/09/12 11:22:22;;;;;;;9.00;4.72;;;;;;;22.50;66.99;101340.06;4938171;28;20035;-66
2022/09/12 11:25:05;;;;;;;12.10;5.05;;;;;;;22.55;65.38;101342.81;4937820;28;20430;-66
2022/09/12 11:27:50;;;;;;;8.02;4.72;;;;;;;22.56;64.47;101336.31;4937082;28;20039;-66